Tiempo atmosférico en la estación meteorológica de Labastida, Araba/Álava (610 m.)



Fecha
DESCASC
Temp. máxima en grados centígrados (hora)
DESCASC
Temp. mínima en grados centígrados (hora)
DESCASC
Temp. media en grados centígrados
DESCASC
Racha de viento máxima en m/sg (hora)
DESCASC
Velocidad máxima media en intervalos de 10 minutos(hora)
DESCASC
Precipitaciones diarias en mm
DESCASC
Precipitaciones de 00:00 a 06:00 en mm
DESCASC
Precipitaciones de 06:00 a 12:00 en mm
DESCASC
Precipitaciones de 12:00 a 18:00 en mm
DESCASC
Precipitaciones de 18:00 a 24:00 en mm
DESCASC
31-05-2020 24.9 (13:10) 15.4 (07:00) 20.1 8.89 (10:20) 4.17 (10:50) 0.2 0 0 0.2 0
30-05-2020 28.4 (17:00) 11.6 (07:20) 20 7.22 (15:50) 4.17 (13:00) 0 0 0 0 0
29-05-2020 29.3 (16:50) 11.9 (07:20) 20.6 10.28 (20:20) 4.17 (21:10) 0 0 0 0 0
28-05-2020 28.6 (16:30) 16.3 (00:00) 22.4 9.44 (06:10) 4.44 (04:40) 0 0 0 0 0
27-05-2020 29.2 (18:10) 10.5 (00:00) 19.9 8.33 (17:50) 2.78 (00:10) 0 0 0 0 0
26-05-2020 25.4 (16:50) 9.7 (00:00) 17.5 11.11 (21:20) 5.56 (21:30) 0 0 0 0 0
25-05-2020 23.1 (14:30) 10.6 (00:00) 16.9 11.11 (21:30) 4.72 (21:30) 0 0 0 0 0
24-05-2020 22.9 (18:30) 7.4 (00:00) 15.1 6.39 (16:20) 2.78 (15:20) 0 0 0 0 0
23-05-2020 18.7 (15:30) 8.8 (00:00) 13.8 12.5 (11:50) 5.83 (12:50) 0 0 0 0 0
22-05-2020 30.1 (19:00) 12.3 (00:00) 21.2 5.28 (14:40) 2.78 (12:40) 0 0 0 0 0
21-05-2020 29 (18:30) 10.1 (00:00) 19.6 5.28 (15:00) 2.5 (15:00) 0 0 0 0 0
20-05-2020 27.5 (16:30) 8.7 (00:00) 18.1 10 (20:30) 3.89 (13:10) 0 0 0 0 0
19-05-2020 24.4 (17:10) 8.2 (00:00) 16.3 9.17 (21:20) 3.89 (21:20) 0 0 0 0 0
18-05-2020 22.1 (15:00) 5.2 (00:00) 13.7 10.28 (22:20) 3.33 (16:20) 0 0 0 0 0
17-05-2020 19.5 (18:10) 5.2 (00:00) 12.3 10.28 (19:40) 5 (20:00) 0 0 0 0 0
16-05-2020 15.5 (19:00) 8.4 (00:00) 11.9 12.5 (23:10) 5.28 (22:40) 0.2 0 0.2 0 0
15-05-2020 13.8 (13:20) 9.4 (00:00) 11.6 11.11 (12:20) 5 (19:00) 0 0 0 0 0
14-05-2020 15.8 (17:30) 10.7 (00:00) 13.3 11.11 (20:40) 5.28 (20:40) 0 0 0 0 0
13-05-2020 18.1 (16:30) 9.1 (00:00) 13.6 5.83 (15:30) 3.06 (17:20) 4 2.8 1 0 0.2
12-05-2020 16.9 (14:20) 7.9 (00:00) 12.4 7.22 (00:10) 3.06 (02:00) 27 0 0 0 27
11-05-2020 18.5 (13:00) 10.1 (00:00) 14.3 11.94 (20:10) 5.83 (18:30) 0.2 0 0 0 0.2
10-05-2020 16.3 (14:00) 10.8 (00:00) 13.5 11.39 (15:00) 3.61 (15:00) 15.6 4.2 0.8 4.6 6
09-05-2020 22.4 (15:30) 12.2 (00:00) 17.3 12.22 (06:50) 6.11 (06:50) 28 0.2 0.2 0 27.6
08-05-2020 24.8 (15:50) 13.4 (00:00) 19.1 13.61 (06:40) 7.22 (06:30) 10 0 0.2 0.2 9.6
07-05-2020 25 (16:30) 11.5 (00:00) 18.3 11.67 (17:20) 6.11 (20:50) 0 0 0 0 0
06-05-2020 25.3 (15:50) 9.1 (00:00) 17.2 8.61 (21:10) 4.17 (21:10) 0 0 0 0 0
05-05-2020 24.1 (16:30) 14 (00:00) 19.1 7.22 (18:50) 3.61 (04:10) 0 0 0 0 0

Gráficas

Temp. máximas Temp. mínimas Temp. medias Precipitaciones Rachas de viento máximas Velocidades máximas media en intervalos de 10 minutos

Datos horarios

Fecha y hora oficial Temperatura (ºC) Velocidad del viento (km/h) Dirección del viento Racha (km/h) Dirección de racha Precipitación (mm) Presión (hPa) Tendencia (hPa) Humedad (%)
2020-06-03 23:00:00 14.2 3 Nordeste 9 Norte 0 -- -- 93
2020-06-03 22:00:00 14.9 0 Calma 9 Sur 0 -- -- 92
2020-06-03 21:00:00 15.6 5 Sudeste 14 Sur 0 -- -- 92
2020-06-03 20:00:00 15.7 2 Sur 11 Norte 0 -- -- 86
2020-06-03 19:00:00 15.1 0 Calma 13 Sudoeste 1 -- -- 95
2020-06-03 18:00:00 15.1 4 Oeste 19 Nordeste 1 -- -- 91
2020-06-03 17:00:00 15.8 9 Nordeste 23 Nordeste 1.6 -- -- 81
2020-06-03 16:00:00 18.1 6 Sur 23 Norte 0 -- -- 72
2020-06-03 15:00:00 23 6 Nordeste 25 Nordeste 0 -- -- 56
2020-06-03 14:00:00 21 10 Nordeste 26 Nordeste 0 -- -- 60
2020-06-03 13:00:00 20.6 7 Norte 18 Norte 0 -- -- 72
2020-06-03 12:00:00 20 5 Noroeste 15 Noroeste 0.2 -- -- 78
2020-06-03 11:00:00 19.6 3 Norte 10 Norte 0 -- -- 80
2020-06-03 10:00:00 17.9 3 Sudoeste 6 Sur 0 -- -- 92
2020-06-03 09:00:00 16.9 0 Calma 8 Sur 0 -- -- 93
2020-06-03 08:00:00 17.5 2 Sudeste 5 Este 0 -- -- 95
2020-06-03 07:00:00 16.8 0 Calma 4 Oeste 0 -- -- 95
2020-06-03 06:00:00 16.6 3 Noroeste 12 Noroeste 0 -- -- 95
2020-06-03 05:00:00 17.1 0 Calma 6 Norte 0 -- -- 94
2020-06-03 04:00:00 17.2 0 Calma 5 Nordeste 0 -- -- 94
2020-06-03 03:00:00 17.8 4 Noroeste 10 Noroeste 0 -- -- 90
2020-06-03 02:00:00 17.9 0 Calma 14 Nordeste 0 -- -- 89
2020-06-03 01:00:00 18.6 3 Nordeste 12 Norte 0 -- -- 88
2020-06-03 00:00:00 19.8 4 Norte 15 Noroeste 0 -- -- 79
2020-06-02 23:00:00 20.8 2 Nordeste 16 Norte 0 -- -- 72
2020-06-02 22:00:00 21.1 2 Oeste 18 Nordeste 0 -- -- 73
2020-06-02 21:00:00 21.8 6 Norte 13 Norte 0 -- -- 70
2020-06-02 20:00:00 22.9 6 Sudoeste 15 Nordeste 0 -- -- 63
2020-06-02 19:00:00 24.7 4 Nordeste 14 Nordeste 0 -- -- 58
2020-06-02 18:00:00 25.4 4 Sudoeste 12 Sur 0 -- -- 59
2020-06-02 17:00:00 25.6 3 Sudeste 10 Sur 0 -- -- 55
2020-06-02 16:00:00 23.9 2 Sudeste 10 Sur 0 -- -- 59
2020-06-02 15:00:00 23.2 7 Sur 15 Sur 0 -- -- 64
2020-06-02 14:00:00 24.5 6 Sudoeste 15 Sur 0 -- -- 63
2020-06-02 13:00:00 23.7 7 Sur 14 Sur 0 -- -- 67
2020-06-02 12:00:00 22.5 3 Sudeste 11 Sudeste 0 -- -- 69
2020-06-02 11:00:00 21.5 5 Sur 12 Sur 0 -- -- 71
2020-06-02 10:00:00 20.2 4 Sudeste 10 Sur 0 -- -- 74
2020-06-02 09:00:00 18.5 5 Sur 7 Sur 0 -- -- 75
2020-06-02 08:00:00 15.8 0 Calma 6 Nordeste 0 -- -- 85
2020-06-02 07:00:00 15 0 Calma 5 Nordeste 0 -- -- 86
2020-06-02 06:00:00 14.8 2 Nordeste 4 Este 0 -- -- 85
2020-06-02 05:00:00 15.9 0 Calma 4 Este 0 -- -- 82
2020-06-02 04:00:00 16.6 2 Nordeste 6 Norte 0 -- -- 75
2020-06-02 03:00:00 16.5 3 Norte 10 Oeste 0 -- -- 70
2020-06-02 02:00:00 18.5 4 Norte 17 Norte 0 -- -- 60
2020-06-02 01:00:00 20.7 7 Nordeste 24 Nordeste 0 -- -- 54
2020-06-02 00:00:00 20.9 8 Norte 27 Este 0 -- -- 59
2020-06-01 23:00:00 21.6 13 Nordeste 31 Nordeste 0 -- -- 55
2020-06-01 22:00:00 21.7 14 Nordeste 32 Nordeste 0 -- -- 64
2020-06-01 21:00:00 23.4 9 Nordeste 22 Nordeste 0 -- -- 60
2020-06-01 20:00:00 25.3 3 Nordeste 13 Nordeste 0 -- -- 51
2020-06-01 19:00:00 27.4 4 Nordeste 11 Norte 0 -- -- 43
2020-06-01 18:00:00 26 2 Nordeste 8 Nordeste 0 -- -- 48
2020-06-01 17:00:00 26.1 5 Sur 14 Sudeste 0 -- -- 45
2020-06-01 16:00:00 26.3 6 Sudeste 17 Sur 0 -- -- 45
2020-06-01 15:00:00 26.9 6 Sudeste 20 Nordeste 0 -- -- 45
2020-06-01 14:00:00 25.6 6 Sur 19 Sur 0 -- -- 50
2020-06-01 13:00:00 23.8 6 Sur 15 Sur 0 -- -- 54
2020-06-01 12:00:00 21.7 5 Sudoeste 13 Sur 0 -- -- 65
2020-06-01 11:00:00 20.1 7 Sur 13 Sur 0 -- -- 72
2020-06-01 10:00:00 17 6 Sudeste 10 Sur 0 -- -- 86
2020-06-01 09:00:00 15 5 Sur 8 Sur 0 -- -- 93
2020-06-01 08:00:00 14.9 2 Nordeste 5 Este 0 -- -- 92
2020-06-01 07:00:00 14.5 0 Calma 10 Noroeste 0 -- -- 90
2020-06-01 06:00:00 14.1 5 Noroeste 9 Noroeste 0 -- -- 90
2020-06-01 05:00:00 14.1 2 Sudoeste 7 Este 0 -- -- 87
2020-06-01 04:00:00 14.8 2 Nordeste 8 Este 0 -- -- 83
2020-06-01 03:00:00 16.8 4 Este 10 Este 0.2 -- -- 77
2020-06-01 02:00:00 16.6 2 Norte 10 Norte 0 -- -- 79
2020-06-01 01:00:00 16.9 5 Norte 9 Noroeste 0 -- -- 78
2020-06-01 00:00:00 19.9 6 Sudeste 23 Sudeste 0 -- -- 57
2020-05-31 23:00:00 18 4 Sudeste 22 Sudeste 0 -- -- 73
2020-05-31 22:00:00 18.2 0 Calma 9 Noroeste 0 -- -- 64
2020-05-31 21:00:00 19.8 5 Noroeste 10 Noroeste 0 -- -- 56
2020-05-31 20:00:00 20.2 3 Este 11 Este 0 -- -- 59
2020-05-31 19:00:00 22.2 7 Sur 19 Este 0 -- -- 61
2020-05-31 18:00:00 21.9 5 Sudeste 14 Sudeste 0 -- -- 72
2020-05-31 17:00:00 20.1 5 Este 11 Este 0.2 -- -- 78
2020-05-31 16:00:00 18.5 5 Sudoeste 13 Sur 0 -- -- 89
2020-05-31 15:00:00 20.5 8 Sur 14 Sur 0 -- -- 70
2020-05-31 14:00:00 23.5 6 Oeste 23 Sur 0 -- -- 60
2020-05-31 13:00:00 24.1 14 Sur 27 Sur 0 -- -- 59
2020-05-31 12:00:00 22.4 14 Sudeste 26 Sudeste 0 -- -- 63
2020-05-31 11:00:00 20.6 15 Sudeste 32 Sur 0 -- -- 68
2020-05-31 10:00:00 19.3 14 Sur 27 Sur 0 -- -- 71
2020-05-31 09:00:00 18.9 10 Sudeste 26 Sur 0 -- -- 74
2020-05-31 08:00:00 16.4 3 Noroeste 31 Sur 0 -- -- 83
2020-05-31 07:00:00 15.4 4 Sur 15 Oeste 0 -- -- 86
2020-05-31 06:00:00 16.6 7 Oeste 11 Noroeste 0 -- -- 81
2020-05-31 05:00:00 16.4 3 Este 8 Noroeste 0 -- -- 77
2020-05-31 04:00:00 16.2 3 Norte 8 Noroeste 0 -- -- 73
2020-05-31 03:00:00 19.1 5 Sudeste 17 Este 0 -- -- 57
2020-05-31 02:00:00 19.1 5 Sudoeste 12 Este 0 -- -- 57
2020-05-31 01:00:00 18.3 3 Norte 12 Sudoeste 0 -- -- 62
2020-05-31 00:00:00 20.1 5 Norte 11 Norte 0 -- -- 54
2020-05-30 23:00:00 21.8 4 Nordeste 12 Nordeste 0 -- -- 48
2020-05-30 22:00:00 21.9 5 Nordeste 9 Este 0 -- -- 49
2020-05-30 21:00:00 23.3 3 Nordeste 13 Sur 0 -- -- 47
2020-05-30 20:00:00 26.9 8 Sur 14 Sur 0 -- -- 40
2020-05-30 19:00:00 27.6 10 Sur 20 Sudoeste 0 -- -- 41
2020-05-30 18:00:00 27.9 10 Sur 22 Sur 0 -- -- 40
2020-05-30 17:00:00 28.4 6 Sur 18 Sur 0 -- -- 37
2020-05-30 16:00:00 27.4 12 Sur 26 Sur 0 -- -- 46
2020-05-30 15:00:00 27 12 Sur 24 Sur 0 -- -- 45
2020-05-30 14:00:00 26.2 11 Sur 23 Sur 0 -- -- 48
2020-05-30 13:00:00 24.3 15 Sur 23 Sudeste 0 -- -- 53
2020-05-30 12:00:00 22.3 12 Sur 23 Sur 0 -- -- 56
2020-05-30 11:00:00 20.6 4 Sur 12 Sur 0 -- -- 64
2020-05-30 10:00:00 18.2 4 Sur 9 Sur 0 -- -- 67
2020-05-30 09:00:00 16.2 2 Noroeste 6 Sudoeste 0 -- -- 73
2020-05-30 08:00:00 12.4 2 Nordeste 4 Nordeste 0 -- -- 85
2020-05-30 07:00:00 11.8 0 Calma 6 Este 0 -- -- 85
2020-05-30 06:00:00 11.8 2 Nordeste 8 Oeste 0 -- -- 82
2020-05-30 05:00:00 12.7 2 Norte 5 Nordeste 0 -- -- 78
2020-05-30 04:00:00 13.2 0 Calma 9 Sudeste 0 -- -- 74
2020-05-30 03:00:00 14 0 Calma 5 Este 0 -- -- 69
2020-05-30 02:00:00 15.5 2 Nordeste 7 Nordeste 0 -- -- 62
2020-05-30 01:00:00 16 2 Nordeste 14 Este 0 -- -- 60
2020-05-30 00:00:00 17.8 5 Nordeste 15 Este 0 -- -- 50
2020-05-29 23:00:00 19.6 5 Este 27 Norte 0 -- -- 44
2020-05-29 22:00:00 21.1 14 Nordeste 34 Nordeste 0 -- -- 46
2020-05-29 21:00:00 22.5 13 Nordeste 37 Este 0 -- -- 46
2020-05-29 20:00:00 25.6 8 Nordeste 23 Este 0 -- -- 44
2020-05-29 19:00:00 27.3 6 Nordeste 24 Norte 0 -- -- 41
2020-05-29 18:00:00 28.4 5 Norte 22 Norte 0 -- -- 38
2020-05-29 17:00:00 28.6 8 Este 20 Nordeste 0 -- -- 37
2020-05-29 16:00:00 28.6 6 Noroeste 24 Norte 0 -- -- 32
2020-05-29 15:00:00 28.3 8 Noroeste 20 Norte 0 -- -- 34
2020-05-29 14:00:00 27.8 5 Sudoeste 15 Sur 0 -- -- 36
2020-05-29 13:00:00 25.9 5 Sudoeste 16 Sudoeste 0 -- -- 46
2020-05-29 12:00:00 23.6 6 Sur 13 Sudoeste 0 -- -- 49
2020-05-29 11:00:00 21.4 5 Sur 10 Sur 0 -- -- 51
2020-05-29 10:00:00 19.8 4 Sur 7 Sur 0 -- -- 56
2020-05-29 09:00:00 17 4 Sur 6 Oeste 0 -- -- 64
2020-05-29 08:00:00 13.5 0 Calma 3 Nordeste 0 -- -- 72
2020-05-29 07:00:00 12.4 0 Calma 4 Nordeste 0 -- -- 74
2020-05-29 06:00:00 12.4 0 Calma 6 Nordeste 0 -- -- 69
2020-05-29 05:00:00 12.7 2 Este 7 Nordeste 0 -- -- 63
2020-05-29 04:00:00 14 2 Nordeste 5 Norte 0 -- -- 56
2020-05-29 03:00:00 14.4 2 Nordeste 6 Este 0 -- -- 55
2020-05-29 02:00:00 15.2 3 Nordeste 8 Noroeste 0 -- -- 54
2020-05-29 01:00:00 17.7 3 Norte 8 Este 0 -- -- 43
2020-05-29 00:00:00 18.6 3 Nordeste 10 Sudeste 0 -- -- 42
2020-05-28 23:00:00 21.6 5 Nordeste 17 Este 0 -- -- 33
2020-05-28 22:00:00 19.8 3 Nordeste 11 Nordeste 0 -- -- 38
2020-05-28 21:00:00 23.7 5 Nordeste 12 Nordeste 0 -- -- 31
2020-05-28 20:00:00 27.5 4 Nordeste 18 Este 0 -- -- 27
2020-05-28 19:00:00 27.8 10 Sudeste 19 Este 0 -- -- 26
2020-05-28 18:00:00 28.4 9 Sudeste 25 Sur 0 -- -- 28
2020-05-28 17:00:00 28.2 11 Sudeste 26 Sur 0 -- -- 29
2020-05-28 16:00:00 28 12 Sur 24 Sur 0 -- -- 33
2020-05-28 15:00:00 27.4 12 Sudeste 25 Este 0 -- -- 34
2020-05-28 14:00:00 25.5 13 Sudeste 27 Sur 0 -- -- 39
2020-05-28 13:00:00 24.4 13 Sudeste 28 Sur 0 -- -- 44
2020-05-28 12:00:00 23.6 14 Sudeste 25 Sur 0 -- -- 45
2020-05-28 11:00:00 21.8 14 Sur 26 Sur 0 -- -- 48
2020-05-28 10:00:00 20.8 6 Oeste 17 Sudoeste 0 -- -- 52
2020-05-28 09:00:00 17.9 6 Oeste 22 Oeste 0 -- -- 61
2020-05-28 08:00:00 16.6 9 Oeste 27 Sudeste 0 -- -- 60
2020-05-28 07:00:00 18 13 Este 34 Sudeste 0 -- -- 52
2020-05-28 06:00:00 18.3 16 Sudeste 33 Este 0 -- -- 51
2020-05-28 05:00:00 18.5 14 Sudeste 32 Este 0 -- -- 52
2020-05-28 04:00:00 18.2 10 Sudeste 22 Este 0 -- -- 55
2020-05-28 03:00:00 19.2 7 Sudeste 21 Sudeste 0 -- -- 57
2020-05-28 02:00:00 20.4 7 Este 15 Este 0 -- -- 57
2020-05-28 01:00:00 18 3 Nordeste 10 Sudeste 0 -- -- 67
2020-05-28 00:00:00 20.3 3 Este 17 Sudeste 0 -- -- 56
2020-05-27 23:00:00 22.3 6 Este 22 Este 0 -- -- 49
2020-05-27 22:00:00 22.2 4 Este 20 Este 0 -- -- 54
2020-05-27 21:00:00 23.7 6 Este 22 Nordeste 0 -- -- 53
2020-05-27 20:00:00 25.3 7 Este 19 Este 0 -- -- 56
2020-05-27 19:00:00 26.9 3 Nordeste 15 Sudeste 0 -- -- 45
2020-05-27 18:00:00 29 5 Nordeste 30 Sudeste 0 -- -- 41
2020-05-27 17:00:00 28 5 Este 18 Sur 0 -- -- 44
2020-05-27 16:00:00 27.4 6 Sudoeste 15 Sur 0 -- -- 49
2020-05-27 15:00:00 26.5 5 Oeste 17 Sur 0 -- -- 51
2020-05-27 14:00:00 24.8 4 Noroeste 14 Sudoeste 0 -- -- 52
2020-05-27 13:00:00 23.6 5 Sudoeste 13 Sur 0 -- -- 59
2020-05-27 12:00:00 21.7 4 Sur 13 Sudoeste 0 -- -- 58
2020-05-27 11:00:00 19.9 5 Sur 9 Sur 0 -- -- 63
2020-05-27 10:00:00 17.6 4 Sur 7 Sur 0 -- -- 72
2020-05-27 09:00:00 14.6 3 Sur 5 Sur 0 -- -- 81
2020-05-27 08:00:00 10.9 0 Calma 3 Sur 0 -- -- 91
2020-05-27 07:00:00 10.7 0 Calma 5 Norte 0 -- -- 90
2020-05-27 06:00:00 11 0 Calma 3 Norte 0 -- -- 88
2020-05-27 05:00:00 11.8 2 Nordeste 6 Nordeste 0 -- -- 84
2020-05-27 04:00:00 12.8 3 Nordeste 7 Nordeste 0 -- -- 81
2020-05-27 03:00:00 14.3 6 Norte 13 Oeste 0 -- -- 73
2020-05-27 02:00:00 14.3 3 Sudeste 12 Este 0 -- -- 76
2020-05-27 01:00:00 16.8 6 Sudeste 25 Nordeste 0 -- -- 64
2020-05-27 00:00:00 18 10 Nordeste 29 Nordeste 0 -- -- 58
2020-05-26 23:00:00 18.2 13 Nordeste 37 Nordeste 0 -- -- 56
2020-05-26 22:00:00 18.3 18 Nordeste 40 Nordeste 0 -- -- 60
2020-05-26 21:00:00 19.3 18 Nordeste 39 Nordeste 0 -- -- 59
2020-05-26 20:00:00 21.2 15 Nordeste 38 Norte 0 -- -- 62
2020-05-26 19:00:00 23.1 12 Nordeste 30 Norte 0 -- -- 58
2020-05-26 18:00:00 24.7 11 Nordeste 27 Sudeste 0 -- -- 52
2020-05-26 17:00:00 25.4 9 Nordeste 28 Norte 0 -- -- 50
2020-05-26 16:00:00 25.1 8 Este 23 Este 0 -- -- 50
2020-05-26 15:00:00 24.5 8 Este 24 Este 0 -- -- 52
2020-05-26 14:00:00 23.7 6 Nordeste 20 Sudeste 0 -- -- 50
2020-05-26 13:00:00 21.6 8 Sudeste 19 Norte 0 -- -- 56
2020-05-26 12:00:00 20.9 7 Este 23 Este 0 -- -- 55
2020-05-26 11:00:00 18.8 5 Sudoeste 11 Sudoeste 0 -- -- 60
2020-05-26 10:00:00 16.6 3 Sudeste 9 Sur 0 -- -- 68
2020-05-26 09:00:00 15.3 2 Sur 6 Sudoeste 0 -- -- 71
2020-05-26 08:00:00 11.7 2 Nordeste 6 Nordeste 0 -- -- 82
2020-05-26 07:00:00 10 2 Nordeste 5 Nordeste 0 -- -- 85
2020-05-26 06:00:00 10.5 0 Calma 5 Este 0 -- -- 81
2020-05-26 05:00:00 10.9 2 Nordeste 5 Este 0 -- -- 78
2020-05-26 04:00:00 11.2 2 Nordeste 7 Nordeste 0 -- -- 74
2020-05-26 03:00:00 12.1 3 Nordeste 14 Oeste 0 -- -- 73
2020-05-26 02:00:00 13.2 3 Noroeste 20 Este 0 -- -- 70
2020-05-26 01:00:00 15 11 Nordeste 27 Norte 0 -- -- 58
2020-05-26 00:00:00 15.8 11 Nordeste 37 Nordeste 0 -- -- 57
2020-05-25 23:00:00 16 14 Nordeste 39 Norte 0 -- -- 60
2020-05-25 22:00:00 16 15 Nordeste 40 Norte 0 -- -- 67
2020-05-25 21:00:00 16.7 17 Nordeste 38 Norte 0 -- -- 64
2020-05-25 20:00:00 16.9 14 Nordeste 37 Norte 0 -- -- 68
2020-05-25 19:00:00 17.6 15 Nordeste 34 Nordeste 0 -- -- 66
2020-05-25 18:00:00 19.3 14 Nordeste 31 Nordeste 0 -- -- 64
2020-05-25 17:00:00 20.3 12 Nordeste 28 Norte 0 -- -- 63
2020-05-25 16:00:00 21 10 Nordeste 25 Nordeste 0 -- -- 61
2020-05-25 15:00:00 21.9 6 Este 20 Este 0 -- -- 60
2020-05-25 14:00:00 20.9 7 Este 18 Este 0 -- -- 61
2020-05-25 13:00:00 20.4 8 Sur 16 Sur 0 -- -- 64
2020-05-25 12:00:00 18.7 5 Sudoeste 9 Sur 0 -- -- 70
2020-05-25 11:00:00 18.9 5 Sur 11 Sur 0 -- -- 68
2020-05-25 10:00:00 15.7 3 Oeste 8 Oeste 0 -- -- 73
2020-05-25 09:00:00 14.9 2 Sur 4 Sur 0 -- -- 77
2020-05-25 08:00:00 11.8 0 Calma 4 Nordeste 0 -- -- 91
2020-05-25 07:00:00 11 2 Norte 4 Nordeste 0 -- -- 91
2020-05-25 06:00:00 10.7 2 Nordeste 5 Este 0 -- -- 92
2020-05-25 05:00:00 10.9 2 Nordeste 4 Nordeste 0 -- -- 92
2020-05-25 04:00:00 11.6 2 Nordeste 5 Oeste 0 -- -- 90
2020-05-25 03:00:00 12.6 0 Calma 5 Nordeste 0 -- -- 88
2020-05-25 02:00:00 13.2 2 Nordeste 5 Nordeste 0 -- -- 87
2020-05-25 01:00:00 13.6 4 Norte 5 Norte 0 -- -- 84
2020-05-25 00:00:00 14.3 0 Calma 14 Nordeste 0 -- -- 82
2020-05-24 23:00:00 14.9 0 Calma 6 Nordeste 0 -- -- 78
2020-05-24 22:00:00 16 2 Nordeste 10 Oeste 0 -- -- 75
2020-05-24 21:00:00 17.6 6 Noroeste 22 Nordeste 0 -- -- 68
2020-05-24 20:00:00 18.6 9 Nordeste 22 Nordeste 0 -- -- 64
2020-05-24 19:00:00 21.6 9 Nordeste 19 Nordeste 0 -- -- 57
2020-05-24 18:00:00 22.4 8 Nordeste 18 Norte 0 -- -- 55
2020-05-24 17:00:00 22.1 9 Sudoeste 23 Sur 0 -- -- 58
2020-05-24 16:00:00 21.6 6 Sudoeste 20 Sur 0 -- -- 58
2020-05-24 15:00:00 21.3 8 Sudeste 17 Este 0 -- -- 57
2020-05-24 14:00:00 19.7 6 Este 18 Sudeste 0 -- -- 53
2020-05-24 13:00:00 18 10 Este 19 Sudeste 0 -- -- 55
2020-05-24 12:00:00 16.6 9 Sudoeste 18 Oeste 0 -- -- 63
2020-05-24 11:00:00 14.9 7 Sudoeste 17 Oeste 0 -- -- 66
2020-05-24 10:00:00 13 5 Sur 12 Sur 0 -- -- 73
2020-05-24 09:00:00 11.7 4 Oeste 9 Norte 0 -- -- 77
2020-05-24 08:00:00 9.4 4 Sudoeste 8 Noroeste 0 -- -- 84
2020-05-24 07:00:00 8.4 2 Nordeste 10 Sur 0 -- -- 87
2020-05-24 06:00:00 8.3 3 Nordeste 8 Sur 0 -- -- 88
2020-05-24 05:00:00 8.4 0 Calma 8 Sudoeste 0 -- -- 86
2020-05-24 04:00:00 8.1 4 Norte 9 Norte 0 -- -- 87
2020-05-24 03:00:00 7.5 3 Nordeste 8 Nordeste 0 -- -- 87
2020-05-24 02:00:00 7.8 2 Norte 10 Norte 0 -- -- 86
2020-05-24 01:00:00 7.9 3 Norte 8 Norte 0 -- -- 88
2020-05-24 00:00:00 8.8 2 Nordeste 10 Noroeste 0 -- -- 84
2020-05-23 23:00:00 10.3 2 Nordeste 12 Sudeste 0 -- -- 81
2020-05-23 22:00:00 11.5 3 Este 26 Sudeste 0 -- -- 79
2020-05-23 21:00:00 12.4 9 Nordeste 36 Nordeste 0 -- -- 77
2020-05-23 20:00:00 13 13 Nordeste 39 Nordeste 0 -- -- 76
2020-05-23 19:00:00 15.1 16 Nordeste 42 Norte 0 -- -- 68
2020-05-23 18:00:00 15.9 16 Nordeste 39 Nordeste 0 -- -- 67
2020-05-23 17:00:00 15 17 Nordeste 41 Nordeste 0 -- -- 70
2020-05-23 16:00:00 16.4 15 Nordeste 35 Nordeste 0 -- -- 70
2020-05-23 15:00:00 17.5 15 Nordeste 38 Nordeste 0 -- -- 65
2020-05-23 14:00:00 16.9 17 Nordeste 41 Norte 0 -- -- 67
2020-05-23 13:00:00 15.5 20 Nordeste 45 Nordeste 0 -- -- 72
2020-05-23 12:00:00 15 18 Nordeste 45 Norte 0 -- -- 77
2020-05-23 11:00:00 14.8 12 Nordeste 30 Nordeste 0 -- -- 82
2020-05-23 10:00:00 16.1 6 Norte 22 Oeste 0 -- -- 78
2020-05-23 09:00:00 16.2 7 Nordeste 29 Norte 0 -- -- 75
2020-05-23 08:00:00 15 5 Norte 18 Este 0 -- -- 81
2020-05-23 07:00:00 15.2 6 Norte 24 Nordeste 0 -- -- 78
2020-05-23 06:00:00 14.8 8 Nordeste 28 Nordeste 0 -- -- 83
2020-05-23 05:00:00 14.9 4 Este 25 Este 0 -- -- 84
2020-05-23 04:00:00 14.8 9 Norte 27 Norte 0 -- -- 85
2020-05-23 03:00:00 15 3 Sudeste 7 Sur 0 -- -- 89
2020-05-23 02:00:00 14.6 0 Calma 5 Sudeste 0 -- -- 89
2020-05-23 01:00:00 15.8 3 Este 7 Este 0 -- -- 86
2020-05-23 00:00:00 16.6 0 Calma 6 Sudoeste 0 -- -- 83
2020-05-22 23:00:00 18.2 2 Este 6 Este 0 -- -- 77
2020-05-22 22:00:00 20.4 2 Sudeste 9 Sur 0 -- -- 71
2020-05-22 21:00:00 24.4 6 Nordeste 19 Nordeste 0 -- -- 55
2020-05-22 20:00:00 27.9 5 Nordeste 13 Este 0 -- -- 51
2020-05-22 19:00:00 30.1 3 Noroeste 14 Sur 0 -- -- 41
2020-05-22 18:00:00 30 4 Sur 13 Sur 0 -- -- 45
2020-05-22 17:00:00 28.7 4 Sudoeste 12 Oeste 0 -- -- 48
2020-05-22 16:00:00 27.3 5 Oeste 17 Oeste 0 -- -- 54
2020-05-22 15:00:00 26.3 7 Oeste 19 Sur 0 -- -- 51
2020-05-22 14:00:00 26.1 6 Sur 15 Sudoeste 0 -- -- 49
2020-05-22 13:00:00 25 6 Sur 16 Sudeste 0 -- -- 52
2020-05-22 12:00:00 24.3 9 Sur 17 Sur 0 -- -- 52
2020-05-22 11:00:00 22.8 5 Oeste 12 Oeste 0 -- -- 55
2020-05-22 10:00:00 20.9 5 Oeste 9 Oeste 0 -- -- 60
2020-05-22 09:00:00 16.7 2 Sudeste 5 Sur 0 -- -- 77
2020-05-22 08:00:00 14.2 2 Este 5 Sudeste 0 -- -- 82
2020-05-22 07:00:00 12.3 0 Calma 6 Noroeste 0 -- -- 85
2020-05-22 06:00:00 12.9 0 Calma 4 Sudoeste 0 -- -- 83
2020-05-22 05:00:00 15.8 2 Nordeste 8 Nordeste 0 -- -- 66
2020-05-22 04:00:00 17.4 5 Norte 9 Norte 0 -- -- 59
2020-05-22 03:00:00 15.4 2 Nordeste 7 Nordeste 0 -- -- 69
2020-05-22 02:00:00 16.1 2 Nordeste 5 Nordeste 0 -- -- 68
2020-05-22 01:00:00 16.9 2 Nordeste 6 Noroeste 0 -- -- 63
2020-05-22 00:00:00 18.1 4 Norte 8 Norte 0 -- -- 61
2020-05-21 23:00:00 19.6 3 Nordeste 9 Nordeste 0 -- -- 51
2020-05-21 22:00:00 20.1 2 Nordeste 8 Este 0 -- -- 51
2020-05-21 21:00:00 21.4 2 Nordeste 4 Nordeste 0 -- -- 53
2020-05-21 20:00:00 28.1 0 Calma 5 Sudoeste 0 -- -- 40
2020-05-21 19:00:00 28 3 Sudoeste 13 Sur 0 -- -- 33
2020-05-21 18:00:00 28.1 4 Sudoeste 15 Sudoeste 0 -- -- 33
2020-05-21 17:00:00 27.8 8 Sudoeste 19 Sur 0 -- -- 30
2020-05-21 16:00:00 27.4 8 Sudoeste 18 Sur 0 -- -- 39
2020-05-21 15:00:00 26.1 9 Sudoeste 19 Sudoeste 0 -- -- 42
2020-05-21 14:00:00 24.9 5 Oeste 13 Sudoeste 0 -- -- 43
2020-05-21 13:00:00 23.5 5 Sudoeste 13 Sur 0 -- -- 53
2020-05-21 12:00:00 21.6 4 Sur 10 Sur 0 -- -- 57
2020-05-21 11:00:00 19 5 Sur 9 Sur 0 -- -- 62
2020-05-21 10:00:00 16 3 Sur 6 Sur 0 -- -- 70
2020-05-21 09:00:00 13.9 0 Calma 5 Sur 0 -- -- 75
2020-05-21 08:00:00 10.7 0 Calma 12 Oeste 0 -- -- 84
2020-05-21 07:00:00 11.4 3 Norte 9 Norte 0 -- -- 78
2020-05-21 06:00:00 11.4 3 Nordeste 6 Nordeste 0 -- -- 77
2020-05-21 05:00:00 12.5 4 Noroeste 9 Norte 0 -- -- 76
2020-05-21 04:00:00 13 3 Norte 8 Noroeste 0 -- -- 73
2020-05-21 03:00:00 13.4 3 Nordeste 6 Este 0 -- -- 71
2020-05-21 02:00:00 14.2 2 Nordeste 16 Este 0 -- -- 67
2020-05-21 01:00:00 14.9 5 Norte 9 Nordeste 0 -- -- 60
2020-05-21 00:00:00 16.3 0 Calma 20 Nordeste 0 -- -- 45
2020-05-20 23:00:00 19.5 4 Sudeste 25 Este 0 -- -- 29
2020-05-20 22:00:00 21.7 10 Nordeste 28 Nordeste 0 -- -- 22
2020-05-20 21:00:00 22.4 14 Nordeste 36 Nordeste 0 -- -- 25
2020-05-20 20:00:00 25.4 6 Norte 23 Norte 0 -- -- 38
2020-05-20 19:00:00 26.3 8 Noroeste 22 Norte 0 -- -- 36
2020-05-20 18:00:00 27 6 Norte 26 Nordeste 0 -- -- 34
2020-05-20 17:00:00 27.1 6 Noroeste 20 Noroeste 0 -- -- 26
2020-05-20 16:00:00 27.1 9 Noroeste 28 Noroeste 0 -- -- 33
2020-05-20 15:00:00 26.4 8 Norte 21 Oeste 0 -- -- 37
2020-05-20 14:00:00 25.8 9 Noroeste 26 Sur 0 -- -- 38
2020-05-20 13:00:00 24.4 10 Sur 19 Sudoeste 0 -- -- 49
2020-05-20 12:00:00 21.6 11 Oeste 19 Sudoeste 0 -- -- 56
2020-05-20 11:00:00 19.5 7 Sudoeste 15 Oeste 0 -- -- 60
2020-05-20 10:00:00 15.8 6 Oeste 11 Oeste 0 -- -- 72
2020-05-20 09:00:00 13.5 2 Sur 6 Sur 0 -- -- 79
2020-05-20 08:00:00 9.3 0 Calma 9 Noroeste 0 -- -- 88
2020-05-20 07:00:00 8.8 2 Nordeste 6 Este 0 -- -- 91
2020-05-20 06:00:00 9.5 2 Norte 5 Noroeste 0 -- -- 90
2020-05-20 05:00:00 9.9 3 Nordeste 6 Este 0 -- -- 88
2020-05-20 04:00:00 11.1 3 Nordeste 9 Norte 0 -- -- 84
2020-05-20 03:00:00 12.1 2 Nordeste 8 Norte 0 -- -- 80
2020-05-20 02:00:00 12.5 2 Norte 13 Este 0 -- -- 76
2020-05-20 01:00:00 12.5 4 Nordeste 10 Noroeste 0 -- -- 71
2020-05-20 00:00:00 14.2 4 Norte 8 Nordeste 0 -- -- 63
2020-05-19 23:00:00 14.5 4 Noroeste 24 Este 0 -- -- 63
2020-05-19 22:00:00 17.2 8 Este 33 Norte 0 -- -- 52
2020-05-19 21:00:00 19.2 6 Nordeste 20 Norte 0 -- -- 48
2020-05-19 20:00:00 22.2 10 Norte 22 Norte 0 -- -- 43
2020-05-19 19:00:00 23 8 Noroeste 24 Norte 0 -- -- 45
2020-05-19 18:00:00 23.9 6 Norte 24 Noroeste 0 -- -- 45
2020-05-19 17:00:00 24.3 9 Norte 23 Noroeste 0 -- -- 43
2020-05-19 16:00:00 23.7 7 Norte 25 Noroeste 0 -- -- 47
2020-05-19 15:00:00 23.2 7 Oeste 18 Noroeste 0 -- -- 48
2020-05-19 14:00:00 22.9 6 Sudeste 19 Sur 0 -- -- 50
2020-05-19 13:00:00 21.1 7 Sur 18 Sudoeste 0 -- -- 57
2020-05-19 12:00:00 18.9 9 Sudoeste 17 Sur 0 -- -- 62
2020-05-19 11:00:00 17.2 5 Sudoeste 12 Sudeste 0 -- -- 59
2020-05-19 10:00:00 14.8 4 Oeste 10 Oeste 0 -- -- 67
2020-05-19 09:00:00 13.1 2 Sur 10 Oeste 0 -- -- 69
2020-05-19 08:00:00 10 5 Norte 10 Norte 0 -- -- 77
2020-05-19 07:00:00 8.3 2 Norte 9 Noroeste 0 -- -- 83
2020-05-19 06:00:00 8.6 4 Norte 6 Norte 0 -- -- 82
2020-05-19 05:00:00 8.9 3 Nordeste 10 Oeste 0 -- -- 80
2020-05-19 04:00:00 9.6 4 Norte 10 Norte 0 -- -- 76
2020-05-19 03:00:00 9.8 4 Nordeste 10 Noroeste 0 -- -- 77
2020-05-19 02:00:00 10.6 3 Norte 8 Norte 0 -- -- 74
2020-05-19 01:00:00 11.2 4 Nordeste 16 Este 0 -- -- 73
2020-05-19 00:00:00 11.7 3 Nordeste 7 Noroeste 0 -- -- 73
2020-05-18 23:00:00 14.5 6 Este 37 Sudeste 0 -- -- 60
2020-05-18 22:00:00 14.9 5 Oeste 24 Noroeste 0 -- -- 58
2020-05-18 21:00:00 16.6 3 Sudeste 22 Noroeste 0 -- -- 50
2020-05-18 20:00:00 19.7 6 Norte 26 Noroeste 0 -- -- 41
2020-05-18 19:00:00 20.7 10 Noroeste 28 Norte 0 -- -- 40
2020-05-18 18:00:00 21.6 10 Norte 27 Norte 0 -- -- 42
2020-05-18 17:00:00 21.7 10 Nordeste 30 Norte 0 -- -- 47
2020-05-18 16:00:00 21.5 11 Noroeste 30 Oeste 0 -- -- 49
2020-05-18 15:00:00 22.1 5 Norte 26 Noroeste 0 -- -- 39
2020-05-18 14:00:00 20.9 8 Noroeste 26 Norte 0 -- -- 42
2020-05-18 13:00:00 19.9 7 Norte 30 Norte 0 -- -- 49
2020-05-18 12:00:00 17.1 8 Oeste 17 Oeste 0 -- -- 62
2020-05-18 11:00:00 16.2 7 Oeste 17 Sudoeste 0 -- -- 59
2020-05-18 10:00:00 13.7 2 Sudeste 10 Noroeste 0 -- -- 66
2020-05-18 09:00:00 9.3 6 Oeste 9 Oeste 0 -- -- 83
2020-05-18 08:00:00 6.3 0 Calma 6 Oeste 0 -- -- 90
2020-05-18 07:00:00 5.3 0 Calma 7 Norte 0 -- -- 92
2020-05-18 06:00:00 5.6 0 Calma 4 Este 0 -- -- 90
2020-05-18 05:00:00 6.3 2 Norte 8 Noroeste 0 -- -- 90
2020-05-18 04:00:00 7.2 2 Este 5 Nordeste 0 -- -- 85
2020-05-18 03:00:00 7.7 0 Calma 4 Nordeste 0 -- -- 81
2020-05-18 02:00:00 9.1 3 Norte 10 Oeste 0 -- -- 74
2020-05-18 01:00:00 9.3 3 Nordeste 13 Nordeste 0 -- -- 73
2020-05-18 00:00:00 12 12 Nordeste 23 Nordeste 0 -- -- 58
2020-05-17 23:00:00 10.7 3 Noroeste 17 Sur 0 -- -- 66
2020-05-17 22:00:00 13.2 6 Noroeste 23 Oeste 0 -- -- 58
2020-05-17 21:00:00 14.5 10 Nordeste 37 Norte 0 -- -- 54
2020-05-17 20:00:00 16.7 18 Nordeste 37 Nordeste 0 -- -- 47
2020-05-17 19:00:00 18.3 9 Noroeste 26 Norte 0 -- -- 47
2020-05-17 18:00:00 18.9 7 Sudoeste 24 Noroeste 0 -- -- 47
2020-05-17 17:00:00 18.7 10 Noroeste 25 Norte 0 -- -- 49
2020-05-17 16:00:00 18.4 7 Sudoeste 24 Noroeste 0 -- -- 50
2020-05-17 15:00:00 18.5 6 Sudeste 18 Sudeste 0 -- -- 51
2020-05-17 14:00:00 17.2 8 Noroeste 22 Norte 0 -- -- 52
2020-05-17 13:00:00 16.1 6 Nordeste 21 Oeste 0 -- -- 54
2020-05-17 12:00:00 14.2 7 Oeste 15 Sur 0 -- -- 64
2020-05-17 11:00:00 13.1 7 Sur 14 Sudoeste 0 -- -- 68
2020-05-17 10:00:00 11.5 5 Sur 16 Sur 0 -- -- 77
2020-05-17 09:00:00 8.7 3 Sur 12 Norte 0 -- -- 84
2020-05-17 08:00:00 5.8 3 Norte 19 Oeste 0 -- -- 94
2020-05-17 07:00:00 5.4 6 Noroeste 21 Oeste 0 -- -- 94
2020-05-17 06:00:00 6.1 3 Norte 20 Oeste 0 -- -- 92
2020-05-17 05:00:00 6.4 3 Norte 6 Noroeste 0 -- -- 92
2020-05-17 04:00:00 6.5 2 Nordeste 19 Sudoeste 0 -- -- 89
2020-05-17 03:00:00 7.4 9 Oeste 16 Sudoeste 0 -- -- 87
2020-05-17 02:00:00 8.3 9 Sudoeste 18 Sur 0 -- -- 84
2020-05-17 01:00:00 9.1 5 Oeste 33 Nordeste 0 -- -- 80
2020-05-17 00:00:00 10.2 12 Nordeste 45 Nordeste 0 -- -- 73
2020-05-16 23:00:00 10.6 17 Nordeste 42 Nordeste 0 -- -- 71
2020-05-16 22:00:00 10.9 10 Nordeste 32 Este 0 -- -- 76
2020-05-16 21:00:00 11.9 12 Norte 29 Norte 0 -- -- 71
2020-05-16 20:00:00 14.3 6 Nordeste 28 Nordeste 0 -- -- 65
2020-05-16 19:00:00 15.5 9 Norte 24 Norte 0 -- -- 60
2020-05-16 18:00:00 14.5 8 Noroeste 27 Norte 0 -- -- 64
2020-05-16 17:00:00 15 10 Norte 28 Norte 0 -- -- 64
2020-05-16 16:00:00 14 6 Noroeste 14 Noroeste 0 -- -- 70
2020-05-16 15:00:00 12.5 7 Noroeste 31 Norte 0 -- -- 75
2020-05-16 14:00:00 14.1 13 Norte 33 Norte 0 -- -- 68
2020-05-16 13:00:00 13 12 Norte 34 Norte 0 -- -- 72
2020-05-16 12:00:00 12.2 8 Norte 38 Norte 0 -- -- 76
2020-05-16 11:00:00 11.2 14 Norte 30 Norte 0 -- -- 78
2020-05-16 10:00:00 10.3 13 Norte 29 Norte 0.2 -- -- 84
2020-05-16 09:00:00 9.3 6 Noroeste 20 Oeste 0 -- -- 89
2020-05-16 08:00:00 8.9 5 Noroeste 20 Oeste 0 -- -- 89
2020-05-16 07:00:00 8.4 8 Oeste 19 Oeste 0 -- -- 90
2020-05-16 06:00:00 8.5 5 Norte 15 Oeste 0 -- -- 88
2020-05-16 05:00:00 9.1 8 Noroeste 23 Oeste 0 -- -- 82
2020-05-16 04:00:00 9.5 6 Sur 27 Nordeste 0 -- -- 77
2020-05-16 03:00:00 9.4 8 Nordeste 32 Norte 0 -- -- 76
2020-05-16 02:00:00 9.4 10 Norte 31 Norte 0 -- -- 74
2020-05-16 01:00:00 9.5 8 Nordeste 28 Este 0 -- -- 74
2020-05-16 00:00:00 9.4 8 Nordeste 26 Nordeste 0 -- -- 74
2020-05-15 23:00:00 9.4 6 Sudeste 26 Nordeste 0 -- -- 74
2020-05-15 22:00:00 9.8 7 Noroeste 24 Sudoeste 0 -- -- 73
2020-05-15 21:00:00 10 6 Sudoeste 22 Noroeste 0 -- -- 74
2020-05-15 20:00:00 10.1 6 Sur 38 Norte 0 -- -- 77
2020-05-15 19:00:00 10.1 18 Norte 40 Norte 0 -- -- 82
2020-05-15 18:00:00 10.3 14 Norte 31 Norte 0 -- -- 82
2020-05-15 17:00:00 11 9 Norte 35 Norte 0 -- -- 78
2020-05-15 16:00:00 12.9 11 Norte 32 Este 0 -- -- 70
2020-05-15 15:00:00 12.6 8 Norte 29 Nordeste 0 -- -- 74
2020-05-15 14:00:00 13.4 11 Norte 31 Norte 0 -- -- 70
2020-05-15 13:00:00 13.4 12 Nordeste 40 Este 0 -- -- 70
2020-05-15 12:00:00 13.7 14 Nordeste 37 Norte 0 -- -- 68
2020-05-15 11:00:00 12.4 14 Norte 29 Noroeste 0 -- -- 75
2020-05-15 10:00:00 11.5 7 Nordeste 22 Este 0 -- -- 80
2020-05-15 09:00:00 10.7 5 Nordeste 27 Norte 0 -- -- 86
2020-05-15 08:00:00 10.4 10 Norte 20 Noroeste 0 -- -- 85
2020-05-15 07:00:00 9.7 4 Norte 15 Oeste 0 -- -- 87
2020-05-15 06:00:00 9.5 8 Oeste 19 Oeste 0 -- -- 86
2020-05-15 05:00:00 9.8 7 Norte 23 Norte 0 -- -- 84
2020-05-15 04:00:00 9.8 8 Norte 23 Norte 0 -- -- 86
2020-05-15 03:00:00 10.1 14 Norte 33 Norte 0 -- -- 84
2020-05-15 02:00:00 10.2 10 Norte 21 Norte 0 -- -- 83
2020-05-15 01:00:00 10.4 8 Norte 23 Norte 0 -- -- 82
2020-05-15 00:00:00 10.7 13 Norte 27 Norte 0 -- -- 79
2020-05-14 23:00:00 10.8 10 Norte 30 Norte 0 -- -- 80
2020-05-14 22:00:00 10.9 13 Nordeste 31 Nordeste 0 -- -- 81
2020-05-14 21:00:00 11.4 15 Nordeste 40 Norte 0 -- -- 77
2020-05-14 20:00:00 11.6 14 Nordeste 35 Norte 0 -- -- 78
2020-05-14 19:00:00 13.1 13 Norte 34 Noroeste 0 -- -- 75
2020-05-14 18:00:00 14.1 17 Norte 35 Norte 0 -- -- 71
2020-05-14 17:00:00 14.9 16 Norte 35 Norte 0 -- -- 68
2020-05-14 16:00:00 14.8 12 Nordeste 33 Norte 0 -- -- 73
2020-05-14 15:00:00 13.6 13 Nordeste 31 Este 0 -- -- 78
2020-05-14 14:00:00 13.8 12 Nordeste 28 Este 0 -- -- 75
2020-05-14 13:00:00 14.1 11 Nordeste 29 Nordeste 0 -- -- 74
2020-05-14 12:00:00 13.8 9 Nordeste 24 Nordeste 0 -- -- 74
2020-05-14 11:00:00 12.4 4 Este 18 Nordeste 0 -- -- 79
2020-05-14 10:00:00 12.2 4 Este 15 Este 0 -- -- 81
2020-05-14 09:00:00 11.4 4 Sudoeste 16 Oeste 0 -- -- 90
2020-05-14 08:00:00 11.3 3 Nordeste 10 Este 0 -- -- 87
2020-05-14 07:00:00 10.9 3 Noroeste 10 Sudeste 0 -- -- 91
2020-05-14 06:00:00 11.2 4 Norte 17 Norte 0 -- -- 87
2020-05-14 05:00:00 11.2 6 Nordeste 15 Nordeste 0 -- -- 87
2020-05-14 04:00:00 11.9 2 Oeste 11 Sudeste 0 -- -- 88
2020-05-14 03:00:00 12.1 6 Este 16 Sudeste 0 -- -- 85
2020-05-14 02:00:00 11.7 4 Este 13 Este 0 -- -- 88
2020-05-14 01:00:00 11.8 5 Norte 9 Oeste 0 -- -- 89
2020-05-14 00:00:00 13.2 0 Calma 16 Este 0.2 -- -- 83
2020-05-13 23:00:00 13.8 3 Norte 14 Norte 0 -- -- 80
2020-05-13 22:00:00 13.9 6 Nordeste 15 Nordeste 0 -- -- 77
2020-05-13 21:00:00 14.7 6 Nordeste 16 Nordeste 0 -- -- 77
2020-05-13 20:00:00 17.5 3 Noroeste 13 Norte 0 -- -- 64
2020-05-13 19:00:00 15.8 4 Sur 10 Oeste 0 -- -- 77
2020-05-13 18:00:00 15.7 4 Sur 18 Sur 0 -- -- 76
2020-05-13 17:00:00 17.4 4 Sudoeste 17 Sudoeste 0 -- -- 67
2020-05-13 16:00:00 16.9 4 Sudoeste 21 Oeste 0 -- -- 63
2020-05-13 15:00:00 16.1 3 Sur 11 Sudeste 0 -- -- 75
2020-05-13 14:00:00 13.1 3 Sur 9 Noroeste 0 -- -- 82
2020-05-13 13:00:00 12.4 4 Noroeste 13 Sur 0 -- -- 86
2020-05-13 12:00:00 12.1 6 Sur 13 Sudoeste 0 -- -- 88
2020-05-13 11:00:00 12 8 Sur 12 Oeste 0 -- -- 89
2020-05-13 10:00:00 11.2 4 Sur 7 Sudeste 0 -- -- 91
2020-05-13 09:00:00 10.1 0 Calma 6 Noroeste 0.2 -- -- 96
2020-05-13 08:00:00 9.2 4 Oeste 11 Oeste 0.8 -- -- 97
2020-05-13 07:00:00 9.6 3 Sur 5 Sur 0 -- -- 96
2020-05-13 06:00:00 9.7 4 Sur 8 Sur 0.2 -- -- 97
2020-05-13 05:00:00 10 0 Calma 10 Oeste 0.4 -- -- 97
2020-05-13 04:00:00 10.5 0 Calma 2 Norte 0 -- -- 97
2020-05-13 03:00:00 10.5 0 Calma 4 Oeste 0.4 -- -- 96
2020-05-13 02:00:00 10.6 2 Norte 5 Noroeste 0.6 -- -- 96
2020-05-13 01:00:00 10.4 3 Oeste 6 Noroeste 1.2 -- -- 96
2020-05-13 00:00:00 10.8 0 Calma 8 Sur 1.4 -- -- 96
2020-05-12 23:00:00 11.1 3 Sur 12 Este 8 -- -- 96
2020-05-12 22:00:00 11.3 3 Nordeste 11 Sudeste 6.8 -- -- 96
2020-05-12 21:00:00 11.5 6 Este 22 Este 10.8 -- -- 95
2020-05-12 20:00:00 14.6 3 Nordeste 8 Oeste 0 -- -- 83
2020-05-12 19:00:00 14.5 3 Noroeste 9 Sur 0 -- -- 86
2020-05-12 18:00:00 14.8 3 Norte 13 Oeste 0 -- -- 85
2020-05-12 17:00:00 15.7 3 Oeste 9 Sur 0 -- -- 75
2020-05-12 16:00:00 16.5 4 Sur 14 Sur 0 -- -- 73
2020-05-12 15:00:00 16.5 9 Sur 15 Sur 0 -- -- 73
2020-05-12 14:00:00 16.4 5 Sur 14 Sudoeste 0 -- -- 75
2020-05-12 13:00:00 13.4 6 Sur 15 Sur 0 -- -- 78
2020-05-12 12:00:00 13.7 2 Sudoeste 12 Sur 0 -- -- 78
2020-05-12 11:00:00 12.7 4 Sur 11 Sur 0 -- -- 80
2020-05-12 10:00:00 11.6 4 Oeste 8 Oeste 0 -- -- 82
2020-05-12 09:00:00 12 4 Sur 7 Sudoeste 0 -- -- 77
2020-05-12 08:00:00 9.2 6 Noroeste 9 Noroeste 0 -- -- 89
2020-05-12 07:00:00 7.9 2 Nordeste 7 Norte 0 -- -- 93
2020-05-12 06:00:00 8.3 2 Oeste 7 Norte 0 -- -- 93
2020-05-12 05:00:00 9.8 2 Sudoeste 7 Noroeste 0 -- -- 89
2020-05-12 04:00:00 9.6 2 Nordeste 6 Nordeste 0 -- -- 89
2020-05-12 03:00:00 11.3 3 Norte 22 Nordeste 0 -- -- 82
2020-05-12 02:00:00 12.4 11 Nordeste 22 Norte 0 -- -- 72
2020-05-12 01:00:00 12 6 Noroeste 26 Norte 0 -- -- 77
2020-05-12 00:00:00 12.1 12 Nordeste 32 Norte 0 -- -- 78
2020-05-11 23:00:00 12 16 Nordeste 35 Norte 0 -- -- 78
2020-05-11 22:00:00 12.5 18 Nordeste 39 Norte 0 -- -- 76
2020-05-11 21:00:00 13.5 19 Nordeste 43 Norte 0 -- -- 73
2020-05-11 20:00:00 15.5 18 Nordeste 42 Norte 0.2 -- -- 70
2020-05-11 19:00:00 16.8 17 Nordeste 40 Nordeste 0 -- -- 66
2020-05-11 18:00:00 17.9 16 Nordeste 35 Norte 0 -- -- 59
2020-05-11 17:00:00 16.8 15 Norte 33 Norte 0 -- -- 60
2020-05-11 16:00:00 16.7 10 Nordeste 27 Nordeste 0 -- -- 60
2020-05-11 15:00:00 15.8 11 Norte 28 Norte 0 -- -- 66
2020-05-11 14:00:00 17.9 8 Noroeste 22 Oeste 0 -- -- 59
2020-05-11 13:00:00 18.5 8 Este 30 Oeste 0 -- -- 60
2020-05-11 12:00:00 16 6 Norte 23 Oeste 0 -- -- 72
2020-05-11 11:00:00 14 7 Norte 20 Noroeste 0 -- -- 77
2020-05-11 10:00:00 13.7 6 Norte 22 Oeste 0 -- -- 79
2020-05-11 09:00:00 12.7 5 Norte 21 Oeste 0 -- -- 81
2020-05-11 08:00:00 11.7 9 Norte 22 Nordeste 0 -- -- 83
2020-05-11 07:00:00 11.2 4 Norte 17 Nordeste 0 -- -- 81
2020-05-11 06:00:00 11.1 9 Nordeste 23 Norte 0 -- -- 82
2020-05-11 05:00:00 10.6 5 Norte 19 Norte 0 -- -- 84
2020-05-11 04:00:00 10.1 4 Norte 10 Norte 0 -- -- 89
2020-05-11 03:00:00 10.4 3 Noroeste 12 Norte 0 -- -- 90
2020-05-11 02:00:00 10.5 5 Norte 10 Oeste 0 -- -- 90
2020-05-11 01:00:00 10.8 3 Noroeste 19 Norte 0 -- -- 89
2020-05-11 00:00:00 11.2 5 Norte 18 Noroeste 0.2 -- -- 87
2020-05-10 23:00:00 11.5 7 Norte 23 Noroeste 0 -- -- 86
2020-05-10 22:00:00 11.6 6 Norte 13 Oeste 0 -- -- 88
2020-05-10 21:00:00 11.7 4 Noroeste 21 Nordeste 0 -- -- 88
2020-05-10 20:00:00 11.8 6 Norte 20 Noroeste 0.2 -- -- 87
2020-05-10 19:00:00 12.2 3 Noroeste 12 Norte 5.6 -- -- 93
2020-05-10 18:00:00 13.2 6 Oeste 22 Norte 0.8 -- -- 87
2020-05-10 17:00:00 12 9 Norte 24 Norte 2.4 -- -- 90
2020-05-10 16:00:00 13.2 8 Norte 31 Noroeste 1.4 -- -- 86
2020-05-10 15:00:00 14.3 13 Norte 41 Noroeste 0 -- -- 79
2020-05-10 14:00:00 16.3 6 Noroeste 21 Norte 0 -- -- 66
2020-05-10 13:00:00 15.1 6 Oeste 19 Noroeste 0 -- -- 67
2020-05-10 12:00:00 15.8 7 Oeste 21 Oeste 0 -- -- 70
2020-05-10 11:00:00 14.6 5 Noroeste 16 Noroeste 0 -- -- 76
2020-05-10 10:00:00 13.7 5 Noroeste 17 Oeste 0 -- -- 83
2020-05-10 09:00:00 12 4 Norte 16 Noroeste 0 -- -- 86
2020-05-10 08:00:00 10.9 5 Norte 23 Norte 0.2 -- -- 88
2020-05-10 07:00:00 11 8 Norte 20 Norte 0.6 -- -- 92
2020-05-10 06:00:00 12.5 4 Norte 12 Norte 0 -- -- 95
2020-05-10 05:00:00 13 3 Norte 7 Oeste 0 -- -- 96
2020-05-10 04:00:00 12.6 2 Nordeste 8 Norte 0 -- -- 96
2020-05-10 03:00:00 12.3 0 Calma 5 Nordeste 0.2 -- -- 96
2020-05-10 02:00:00 12.8 3 Nordeste 22 Noroeste 4 -- -- 94
2020-05-10 01:00:00 13.3 3 Nordeste 12 Noroeste 0 -- -- 95
2020-05-10 00:00:00 13.6 0 Calma 12 Nordeste 2 -- -- 96
2020-05-09 23:00:00 13.6 4 Norte 6 Nordeste 3.2 -- -- 95
2020-05-09 22:00:00 13.2 0 Calma 21 Nordeste 2.2 -- -- 93
2020-05-09 21:00:00 13.4 10 Sudeste 30 Sudoeste 20 -- -- 89
2020-05-09 20:00:00 19.7 5 Nordeste 23 Norte 0.2 -- -- 59
2020-05-09 19:00:00 19 13 Norte 31 Norte 0 -- -- 65
2020-05-09 18:00:00 20.4 12 Norte 35 Norte 0 -- -- 58
2020-05-09 17:00:00 20.8 5 Nordeste 23 Este 0 -- -- 62
2020-05-09 16:00:00 21.4 11 Sudeste 33 Sudeste 0 -- -- 60
2020-05-09 15:00:00 22.1 14 Sudeste 30 Sudeste 0 -- -- 59
2020-05-09 14:00:00 21.6 13 Sudeste 29 Sudeste 0 -- -- 60
2020-05-09 13:00:00 20.2 11 Sur 25 Sur 0 -- -- 63
2020-05-09 12:00:00 20.1 10 Sur 22 Sur 0 -- -- 65
2020-05-09 11:00:00 19.1 9 Sur 28 Sur 0.2 -- -- 64
2020-05-09 10:00:00 18.1 9 Sudeste 41 Este 0 -- -- 63
2020-05-09 09:00:00 17.2 15 Sudeste 39 Este 0 -- -- 62
2020-05-09 08:00:00 14.8 21 Sudeste 44 Sudeste 0 -- -- 60
2020-05-09 07:00:00 14.5 17 Este 44 Sudeste 0 -- -- 60
2020-05-09 06:00:00 13.1 3 Sudeste 22 Sudeste 0 -- -- 82
2020-05-09 05:00:00 15.8 9 Este 29 Este 0 -- -- 69
2020-05-09 04:00:00 14.7 11 Sudeste 28 Este 0.2 -- -- 73
2020-05-09 03:00:00 15.4 8 Este 19 Este 0 -- -- 70
2020-05-09 02:00:00 13.6 3 Norte 9 Norte 0 -- -- 88
2020-05-09 01:00:00 13.7 2 Nordeste 12 Norte 0 -- -- 90
2020-05-09 00:00:00 15 6 Norte 24 Nordeste 0 -- -- 85
2020-05-08 23:00:00 16.1 9 Este 28 Nordeste 2.4 -- -- 76
2020-05-08 22:00:00 17.6 4 Este 18 Este 0.2 -- -- 68
2020-05-08 21:00:00 18 9 Nordeste 31 Sudeste 0.2 -- -- 63
2020-05-08 20:00:00 17.4 13 Nordeste 41 Nordeste 6.6 -- -- 70
2020-05-08 19:00:00 20.3 8 Nordeste 23 Nordeste 0.2 -- -- 60
2020-05-08 18:00:00 21.7 4 Este 26 Este 0 -- -- 67
2020-05-08 17:00:00 23.1 8 Este 26 Este 0 -- -- 51
2020-05-08 16:00:00 23.8 14 Sudeste 30 Este 0 -- -- 50
2020-05-08 15:00:00 23.4 12 Sudeste 28 Sudeste 0 -- -- 54
2020-05-08 14:00:00 21.1 14 Sudeste 28 Sudeste 0.2 -- -- 59
2020-05-08 13:00:00 19 10 Sudeste 26 Este 0 -- -- 66
2020-05-08 12:00:00 14.8 6 Este 31 Sudoeste 0.2 -- -- 83
2020-05-08 11:00:00 14.3 5 Este 15 Sudoeste 0 -- -- 83
2020-05-08 10:00:00 15.1 6 Sur 17 Sudeste 0 -- -- 76
2020-05-08 09:00:00 14.9 6 Noroeste 12 Oeste 0 -- -- 74
2020-05-08 08:00:00 14.7 6 Oeste 22 Oeste 0 -- -- 71
2020-05-08 07:00:00 17.7 14 Sudeste 49 Sudeste 0 -- -- 58
2020-05-08 06:00:00 16.6 15 Sudeste 40 Sudeste 0 -- -- 62
2020-05-08 05:00:00 17.6 15 Sudeste 39 Sudeste 0 -- -- 60
2020-05-08 04:00:00 19.5 7 Sudeste 47 Sudeste 0 -- -- 60
2020-05-08 03:00:00 19.6 18 Sudeste 44 Sudeste 0 -- -- 60
2020-05-08 02:00:00 21.3 13 Sudeste 35 Este 0 -- -- 54
2020-05-08 01:00:00 21.2 18 Este 37 Este 0 -- -- 55
2020-05-08 00:00:00 21.6 19 Este 37 Sudeste 0 -- -- 54
2020-05-07 23:00:00 22.1 20 Este 41 Sudeste 0 -- -- 54
2020-05-07 22:00:00 22.5 19 Este 38 Este 0 -- -- 52
2020-05-07 21:00:00 22.8 21 Este 42 Este 0 -- -- 49
2020-05-07 20:00:00 23 20 Sudeste 40 Sudeste 0 -- -- 49
2020-05-07 19:00:00 23.1 19 Sudeste 40 Este 0 -- -- 48
2020-05-07 18:00:00 23.5 19 Sudeste 42 Este 0 -- -- 49
2020-05-07 17:00:00 24.3 20 Sudeste 37 Este 0 -- -- 48
2020-05-07 16:00:00 24.4 18 Sudeste 40 Este 0 -- -- 50
2020-05-07 15:00:00 23.4 20 Sudeste 36 Este 0 -- -- 50
2020-05-07 14:00:00 23.4 14 Este 34 Este 0 -- -- 56
2020-05-07 13:00:00 22.5 14 Sudeste 31 Este 0 -- -- 54
2020-05-07 12:00:00 23.6 9 Sudeste 23 Sur 0 -- -- 52
2020-05-07 11:00:00 20.9 4 Sudoeste 10 Sudoeste 0 -- -- 58
2020-05-07 10:00:00 18 4 Sur 8 Sur 0 -- -- 73
2020-05-07 09:00:00 14.6 3 Sur 5 Sur 0 -- -- 83
2020-05-07 08:00:00 12.2 0 Calma 4 Norte 0 -- -- 90
2020-05-07 07:00:00 11.5 0 Calma 3 Norte 0 -- -- 90
2020-05-07 06:00:00 12.2 0 Calma 4 Nordeste 0 -- -- 88
2020-05-07 05:00:00 13 0 Calma 4 Norte 0 -- -- 88
2020-05-07 04:00:00 13.7 0 Calma 6 Norte 0 -- -- 84
2020-05-07 03:00:00 13.9 0 Calma 6 Este 0 -- -- 81
2020-05-07 02:00:00 15.2 2 Nordeste 12 Sudeste 0 -- -- 76
2020-05-07 01:00:00 15.9 0 Calma 11 Nordeste 0 -- -- 75
2020-05-07 00:00:00 18 5 Nordeste 22 Nordeste 0 -- -- 67
2020-05-06 23:00:00 19.3 10 Nordeste 26 Nordeste 0 -- -- 59
2020-05-06 22:00:00 19.4 13 Nordeste 31 Nordeste 0 -- -- 61
2020-05-06 21:00:00 20.1 11 Nordeste 24 Nordeste 0 -- -- 57
2020-05-06 20:00:00 23.4 8 Norte 17 Norte 0 -- -- 45
2020-05-06 19:00:00 24.7 4 Noroeste 18 Oeste 0 -- -- 35
2020-05-06 18:00:00 25.2 4 Norte 18 Oeste 0 -- -- 34
2020-05-06 17:00:00 24.7 6 Sudoeste 16 Oeste 0 -- -- 36
2020-05-06 16:00:00 24.6 8 Sudoeste 16 Sudoeste 0 -- -- 38
2020-05-06 15:00:00 23.9 3 Noroeste 14 Oeste 0 -- -- 30
2020-05-06 14:00:00 23.7 5 Sudoeste 12 Sudoeste 0 -- -- 33
2020-05-06 13:00:00 22.4 6 Sur 13 Sudoeste 0 -- -- 37
2020-05-06 12:00:00 20.5 3 Sudoeste 13 Sudoeste 0 -- -- 44
2020-05-06 11:00:00 19.1 5 Noroeste 12 Oeste 0 -- -- 51
2020-05-06 10:00:00 16.6 3 Sur 5 Sur 0 -- -- 67
2020-05-06 09:00:00 13.9 0 Calma 4 Sur 0 -- -- 71
2020-05-06 08:00:00 9.9 0 Calma 4 Nordeste 0 -- -- 83
2020-05-06 07:00:00 9.2 0 Calma 6 Nordeste 0 -- -- 82
2020-05-06 06:00:00 9.2 0 Calma 4 Nordeste 0 -- -- 82
2020-05-06 05:00:00 10 0 Calma 5 Nordeste 0 -- -- 79
2020-05-06 04:00:00 10.7 2 Nordeste 4 Norte 0 -- -- 77
2020-05-06 03:00:00 11.2 0 Calma 5 Norte 0 -- -- 75
2020-05-06 02:00:00 12.1 2 Nordeste 11 Norte 0 -- -- 71
2020-05-06 01:00:00 12.9 6 Noroeste 10 Noroeste 0 -- -- 67
2020-05-06 00:00:00 14 5 Noroeste 10 Oeste 0 -- -- 61
2020-05-05 23:00:00 17 4 Norte 14 Norte 0 -- -- 50
2020-05-05 22:00:00 18 6 Nordeste 18 Nordeste 0 -- -- 46
2020-05-05 21:00:00 19.1 6 Nordeste 21 Norte 0 -- -- 39
2020-05-05 20:00:00 21.3 9 Norte 21 Norte 0 -- -- 36
2020-05-05 19:00:00 23.3 7 Norte 26 Oeste 0 -- -- 27
2020-05-05 18:00:00 23.6 6 Noroeste 22 Oeste 0 -- -- 30
2020-05-05 17:00:00 23.7 6 Noroeste 19 Oeste 0 -- -- 31
2020-05-05 16:00:00 22.7 8 Noroeste 23 Sudoeste 0 -- -- 36
2020-05-05 15:00:00 21.7 6 Oeste 19 Oeste 0 -- -- 39
2020-05-05 14:00:00 21 8 Noroeste 22 Oeste 0 -- -- 42
2020-05-05 13:00:00 19.7 8 Oeste 23 Sur 0 -- -- 45
2020-05-05 12:00:00 19.3 5 Noroeste 17 Oeste 0 -- -- 52
2020-05-05 11:00:00 17.8 8 Oeste 21 Norte 0 -- -- 58
2020-05-05 10:00:00 16.3 4 Noroeste 21 Norte 0 -- -- 64
2020-05-05 09:00:00 14.7 6 Norte 15 Noroeste 0 -- -- 67
2020-05-05 08:00:00 14.3 7 Norte 16 Noroeste 0 -- -- 67
2020-05-05 07:00:00 14.4 5 Norte 16 Oeste 0 -- -- 67
2020-05-05 06:00:00 15.3 4 Norte 16 Noroeste 0 -- -- 65
2020-05-05 05:00:00 15.9 7 Norte 26 Norte 0 -- -- 61
2020-05-05 04:00:00 16.6 9 Norte 22 Norte 0 -- -- 57
2020-05-05 03:00:00 17.3 8 Norte 21 Norte 0 -- -- 54
2020-05-05 02:00:00 18.3 11 Norte 24 Norte 0 -- -- 50
2020-05-05 01:00:00 18.7 8 Norte 23 Norte 0 -- -- 49
2020-05-05 00:00:00 19.3 9 Norte 32 Noroeste 0 -- -- 49